Terminal Aerodrome Forecast
Issued by NWS Louisville, KY

Home | Current Version | Previous Version | Text Only | Print | Product List | Glossary On
Versions: 1 2 3 4 5 6 7 8 9 10 11 12 13 14 15 16 17 18 19 20 21 22 23
000
FTUS43 KLMK 230400 AAA
TAFLEX
TAF AMD
KLEX 230410Z 2304/2324 VRB03KT P6SM SCT013 BKN250
     FM230900 00000KT 4SM BR SCT250
     FM231300 VRB03KT P6SM SCT250
     FM231800 VRB04KT P6SM SCT035 PROB30 2318/2324 -TSRA BKN035CB=

USA.gov is the U.S. government's official web portal to all federal, state and local government web resources and services.